sensor_id;sensor_type;location;lat;lon;timestamp;P1;durP1;ratioP1;P2;durP2;ratioP2
23080;SDS011;72373;50.562;8.498;2024-01-30T00:01:13;38.35;;;21.27;;
23080;SDS011;72373;50.562;8.498;2024-01-30T00:03:39;41.95;;;22.50;;
23080;SDS011;72373;50.562;8.498;2024-01-30T00:06:04;39.45;;;21.55;;
23080;SDS011;72373;50.562;8.498;2024-01-30T00:08:30;38.92;;;21.60;;
23080;SDS011;72373;50.562;8.498;2024-01-30T00:10:55;35.22;;;21.00;;
23080;SDS011;72373;50.562;8.498;2024-01-30T00:13:21;34.78;;;20.58;;
23080;SDS011;72373;50.562;8.498;2024-01-30T00:15:47;38.63;;;21.17;;
23080;SDS011;72373;50.562;8.498;2024-01-30T00:18:13;35.85;;;22.42;;
23080;SDS011;72373;50.562;8.498;2024-01-30T00:20:39;37.88;;;21.92;;
23080;SDS011;72373;50.562;8.498;2024-01-30T00:23:04;31.55;;;19.50;;
23080;SDS011;72373;50.562;8.498;2024-01-30T00:25:30;35.25;;;20.75;;
23080;SDS011;72373;50.562;8.498;2024-01-30T00:27:55;33.58;;;19.38;;
23080;SDS011;72373;50.562;8.498;2024-01-30T00:30:21;39.55;;;21.27;;
23080;SDS011;72373;50.562;8.498;2024-01-30T00:32:47;36.17;;;20.27;;
23080;SDS011;72373;50.562;8.498;2024-01-30T00:35:12;36.75;;;19.75;;
23080;SDS011;72373;50.562;8.498;2024-01-30T00:37:38;31.60;;;19.15;;
23080;SDS011;72373;50.562;8.498;2024-01-30T00:40:03;41.10;;;21.50;;
23080;SDS011;72373;50.562;8.498;2024-01-30T00:42:30;34.80;;;20.40;;
23080;SDS011;72373;50.562;8.498;2024-01-30T00:44:56;32.53;;;19.60;;
23080;SDS011;72373;50.562;8.498;2024-01-30T00:47:22;33.88;;;19.10;;
23080;SDS011;72373;50.562;8.498;2024-01-30T00:49:47;35.80;;;21.52;;
23080;SDS011;72373;50.562;8.498;2024-01-30T00:52:13;37.33;;;19.60;;
23080;SDS011;72373;50.562;8.498;2024-01-30T00:54:39;34.33;;;20.58;;
23080;SDS011;72373;50.562;8.498;2024-01-30T00:57:04;35.38;;;19.48;;
23080;SDS011;72373;50.562;8.498;2024-01-30T00:59:30;38.80;;;20.40;;
23080;SDS011;72373;50.562;8.498;2024-01-30T01:01:55;33.92;;;19.27;;
23080;SDS011;72373;50.562;8.498;2024-01-30T01:04:21;36.78;;;19.83;;
23080;SDS011;72373;50.562;8.498;2024-01-30T01:06:46;31.85;;;18.15;;
23080;SDS011;72373;50.562;8.498;2024-01-30T01:09:12;34.35;;;18.52;;
23080;SDS011;72373;50.562;8.498;2024-01-30T01:11:38;34.08;;;20.05;;
23080;SDS011;72373;50.562;8.498;2024-01-30T01:14:04;32.85;;;18.92;;
23080;SDS011;72373;50.562;8.498;2024-01-30T01:16:30;35.78;;;18.88;;
23080;SDS011;72373;50.562;8.498;2024-01-30T01:18:55;32.35;;;19.15;;
23080;SDS011;72373;50.562;8.498;2024-01-30T01:21:21;32.30;;;19.52;;
23080;SDS011;72373;50.562;8.498;2024-01-30T01:23:46;35.35;;;19.92;;
23080;SDS011;72373;50.562;8.498;2024-01-30T01:26:12;34.60;;;20.27;;
23080;SDS011;72373;50.562;8.498;2024-01-30T01:28:39;38.63;;;19.90;;
23080;SDS011;72373;50.562;8.498;2024-01-30T01:31:07;36.33;;;20.90;;
23080;SDS011;72373;50.562;8.498;2024-01-30T01:33:33;33.95;;;19.85;;
23080;SDS011;72373;50.562;8.498;2024-01-30T01:35:59;29.42;;;17.83;;
23080;SDS011;72373;50.562;8.498;2024-01-30T01:38:27;31.58;;;19.05;;
23080;SDS011;72373;50.562;8.498;2024-01-30T01:40:53;31.80;;;17.88;;
23080;SDS011;72373;50.562;8.498;2024-01-30T01:43:18;32.47;;;17.55;;
23080;SDS011;72373;50.562;8.498;2024-01-30T01:45:45;31.80;;;19.05;;
23080;SDS011;72373;50.562;8.498;2024-01-30T01:48:11;31.73;;;19.05;;
23080;SDS011;72373;50.562;8.498;2024-01-30T01:50:37;32.72;;;19.23;;
23080;SDS011;72373;50.562;8.498;2024-01-30T01:53:03;32.75;;;18.63;;
23080;SDS011;72373;50.562;8.498;2024-01-30T01:55:31;33.20;;;19.35;;
23080;SDS011;72373;50.562;8.498;2024-01-30T01:57:57;32.65;;;19.33;;
23080;SDS011;72373;50.562;8.498;2024-01-30T02:00:23;32.78;;;17.95;;
23080;SDS011;72373;50.562;8.498;2024-01-30T02:02:48;39.10;;;18.85;;
23080;SDS011;72373;50.562;8.498;2024-01-30T02:05:15;37.20;;;19.48;;
23080;SDS011;72373;50.562;8.498;2024-01-30T02:07:41;38.47;;;21.80;;
23080;SDS011;72373;50.562;8.498;2024-01-30T02:10:08;35.95;;;20.55;;
23080;SDS011;72373;50.562;8.498;2024-01-30T02:12:37;40.70;;;20.25;;
23080;SDS011;72373;50.562;8.498;2024-01-30T02:15:03;32.50;;;18.73;;
23080;SDS011;72373;50.562;8.498;2024-01-30T02:17:30;37.17;;;20.08;;
23080;SDS011;72373;50.562;8.498;2024-01-30T02:19:55;34.75;;;18.17;;
23080;SDS011;72373;50.562;8.498;2024-01-30T02:22:21;35.33;;;19.35;;
23080;SDS011;72373;50.562;8.498;2024-01-30T02:24:48;34.70;;;19.60;;
23080;SDS011;72373;50.562;8.498;2024-01-30T02:27:14;31.88;;;18.38;;
23080;SDS011;72373;50.562;8.498;2024-01-30T02:29:39;34.58;;;19.48;;
23080;SDS011;72373;50.562;8.498;2024-01-30T02:32:05;33.60;;;18.98;;
23080;SDS011;72373;50.562;8.498;2024-01-30T02:34:31;29.63;;;18.80;;
23080;SDS011;72373;50.562;8.498;2024-01-30T02:36:56;32.10;;;19.02;;
23080;SDS011;72373;50.562;8.498;2024-01-30T02:39:22;35.30;;;19.25;;
23080;SDS011;72373;50.562;8.498;2024-01-30T02:41:48;34.13;;;19.05;;
23080;SDS011;72373;50.562;8.498;2024-01-30T02:44:13;42.00;;;19.70;;
23080;SDS011;72373;50.562;8.498;2024-01-30T02:46:39;42.38;;;20.13;;
23080;SDS011;72373;50.562;8.498;2024-01-30T02:49:04;40.67;;;20.45;;
23080;SDS011;72373;50.562;8.498;2024-01-30T02:51:30;32.80;;;20.02;;
23080;SDS011;72373;50.562;8.498;2024-01-30T02:53:55;33.20;;;18.63;;
23080;SDS011;72373;50.562;8.498;2024-01-30T02:56:21;36.22;;;21.20;;
23080;SDS011;72373;50.562;8.498;2024-01-30T02:58:47;38.03;;;20.33;;
23080;SDS011;72373;50.562;8.498;2024-01-30T03:01:12;34.55;;;18.42;;
23080;SDS011;72373;50.562;8.498;2024-01-30T03:03:38;34.10;;;18.95;;
23080;SDS011;72373;50.562;8.498;2024-01-30T03:06:05;36.72;;;19.35;;
23080;SDS011;72373;50.562;8.498;2024-01-30T03:08:31;33.78;;;19.38;;
23080;SDS011;72373;50.562;8.498;2024-01-30T03:10:56;36.63;;;20.55;;
23080;SDS011;72373;50.562;8.498;2024-01-30T03:13:22;34.33;;;19.35;;
23080;SDS011;72373;50.562;8.498;2024-01-30T03:15:49;33.22;;;18.40;;
23080;SDS011;72373;50.562;8.498;2024-01-30T03:18:15;35.70;;;19.25;;
23080;SDS011;72373;50.562;8.498;2024-01-30T03:20:41;33.28;;;18.48;;
23080;SDS011;72373;50.562;8.498;2024-01-30T03:23:06;35.50;;;19.63;;
23080;SDS011;72373;50.562;8.498;2024-01-30T03:25:32;36.15;;;18.98;;
23080;SDS011;72373;50.562;8.498;2024-01-30T03:27:57;36.72;;;19.92;;
23080;SDS011;72373;50.562;8.498;2024-01-30T03:30:23;33.67;;;18.33;;
23080;SDS011;72373;50.562;8.498;2024-01-30T03:32:48;33.47;;;19.45;;
23080;SDS011;72373;50.562;8.498;2024-01-30T03:35:14;33.25;;;17.75;;
23080;SDS011;72373;50.562;8.498;2024-01-30T03:37:40;37.53;;;18.85;;
23080;SDS011;72373;50.562;8.498;2024-01-30T03:40:05;29.13;;;18.05;;
23080;SDS011;72373;50.562;8.498;2024-01-30T03:42:31;31.67;;;17.90;;
23080;SDS011;72373;50.562;8.498;2024-01-30T03:44:57;33.55;;;18.60;;
23080;SDS011;72373;50.562;8.498;2024-01-30T03:47:22;31.55;;;17.63;;
23080;SDS011;72373;50.562;8.498;2024-01-30T03:49:48;31.48;;;19.70;;
23080;SDS011;72373;50.562;8.498;2024-01-30T03:52:13;38.72;;;20.67;;
23080;SDS011;72373;50.562;8.498;2024-01-30T03:54:39;37.92;;;20.05;;
23080;SDS011;72373;50.562;8.498;2024-01-30T03:57:04;35.20;;;19.90;;
23080;SDS011;72373;50.562;8.498;2024-01-30T03:59:30;33.03;;;18.85;;
23080;SDS011;72373;50.562;8.498;2024-01-30T04:01:56;47.20;;;22.17;;
23080;SDS011;72373;50.562;8.498;2024-01-30T04:04:21;38.08;;;20.38;;
23080;SDS011;72373;50.562;8.498;2024-01-30T04:06:47;35.33;;;20.08;;
23080;SDS011;72373;50.562;8.498;2024-01-30T04:09:12;36.35;;;21.13;;
23080;SDS011;72373;50.562;8.498;2024-01-30T04:11:39;37.03;;;20.52;;
23080;SDS011;72373;50.562;8.498;2024-01-30T04:14:04;39.85;;;22.77;;
23080;SDS011;72373;50.562;8.498;2024-01-30T04:16:30;36.28;;;20.42;;
23080;SDS011;72373;50.562;8.498;2024-01-30T04:18:56;46.05;;;22.10;;
23080;SDS011;72373;50.562;8.498;2024-01-30T04:21:23;36.65;;;21.83;;
23080;SDS011;72373;50.562;8.498;2024-01-30T04:23:48;45.72;;;23.95;;
23080;SDS011;72373;50.562;8.498;2024-01-30T04:26:15;39.50;;;23.35;;
23080;SDS011;72373;50.562;8.498;2024-01-30T04:28:41;38.00;;;21.63;;
23080;SDS011;72373;50.562;8.498;2024-01-30T04:31:07;35.20;;;21.40;;
23080;SDS011;72373;50.562;8.498;2024-01-30T04:33:32;36.85;;;19.77;;
23080;SDS011;72373;50.562;8.498;2024-01-30T04:35:58;39.35;;;21.13;;
23080;SDS011;72373;50.562;8.498;2024-01-30T04:38:23;42.83;;;20.90;;
23080;SDS011;72373;50.562;8.498;2024-01-30T04:40:49;33.45;;;20.52;;
23080;SDS011;72373;50.562;8.498;2024-01-30T04:43:14;33.40;;;19.67;;
23080;SDS011;72373;50.562;8.498;2024-01-30T04:45:40;36.30;;;19.50;;
23080;SDS011;72373;50.562;8.498;2024-01-30T04:48:06;36.75;;;19.95;;
23080;SDS011;72373;50.562;8.498;2024-01-30T04:50:32;39.38;;;21.00;;
23080;SDS011;72373;50.562;8.498;2024-01-30T04:52:58;33.65;;;19.20;;
23080;SDS011;72373;50.562;8.498;2024-01-30T04:55:23;38.60;;;19.65;;
23080;SDS011;72373;50.562;8.498;2024-01-30T04:57:49;32.20;;;18.23;;
23080;SDS011;72373;50.562;8.498;2024-01-30T05:00:14;30.67;;;19.75;;
23080;SDS011;72373;50.562;8.498;2024-01-30T05:02:40;34.72;;;19.33;;
23080;SDS011;72373;50.562;8.498;2024-01-30T05:05:06;32.63;;;18.83;;
23080;SDS011;72373;50.562;8.498;2024-01-30T05:07:32;37.17;;;19.83;;
23080;SDS011;72373;50.562;8.498;2024-01-30T05:09:58;35.92;;;19.85;;
23080;SDS011;72373;50.562;8.498;2024-01-30T05:12:24;33.13;;;18.55;;
23080;SDS011;72373;50.562;8.498;2024-01-30T05:14:49;36.38;;;19.45;;
23080;SDS011;72373;50.562;8.498;2024-01-30T05:17:15;33.95;;;19.50;;
23080;SDS011;72373;50.562;8.498;2024-01-30T05:19:40;36.30;;;18.98;;
23080;SDS011;72373;50.562;8.498;2024-01-30T05:22:07;37.60;;;19.85;;
23080;SDS011;72373;50.562;8.498;2024-01-30T05:24:33;32.70;;;19.15;;
23080;SDS011;72373;50.562;8.498;2024-01-30T05:26:58;33.05;;;19.33;;
23080;SDS011;72373;50.562;8.498;2024-01-30T05:29:24;35.53;;;20.15;;
23080;SDS011;72373;50.562;8.498;2024-01-30T05:31:49;35.83;;;20.52;;
23080;SDS011;72373;50.562;8.498;2024-01-30T05:34:15;37.35;;;20.92;;
23080;SDS011;72373;50.562;8.498;2024-01-30T05:36:41;32.85;;;19.98;;
23080;SDS011;72373;50.562;8.498;2024-01-30T05:39:06;36.92;;;20.70;;
23080;SDS011;72373;50.562;8.498;2024-01-30T05:41:32;34.15;;;20.13;;
23080;SDS011;72373;50.562;8.498;2024-01-30T05:43:57;34.72;;;19.65;;
23080;SDS011;72373;50.562;8.498;2024-01-30T05:46:23;35.15;;;20.30;;
23080;SDS011;72373;50.562;8.498;2024-01-30T05:48:48;36.30;;;20.63;;
23080;SDS011;72373;50.562;8.498;2024-01-30T05:51:14;40.95;;;21.58;;
23080;SDS011;72373;50.562;8.498;2024-01-30T05:53:40;38.38;;;22.00;;
23080;SDS011;72373;50.562;8.498;2024-01-30T05:56:05;40.65;;;23.13;;
23080;SDS011;72373;50.562;8.498;2024-01-30T05:58:31;37.67;;;21.63;;
23080;SDS011;72373;50.562;8.498;2024-01-30T06:00:57;36.58;;;21.52;;
23080;SDS011;72373;50.562;8.498;2024-01-30T06:03:23;34.22;;;20.98;;
23080;SDS011;72373;50.562;8.498;2024-01-30T06:05:48;38.08;;;22.67;;
23080;SDS011;72373;50.562;8.498;2024-01-30T06:08:14;36.15;;;22.15;;
23080;SDS011;72373;50.562;8.498;2024-01-30T06:10:39;35.08;;;21.60;;
23080;SDS011;72373;50.562;8.498;2024-01-30T06:13:05;34.90;;;20.85;;
23080;SDS011;72373;50.562;8.498;2024-01-30T06:15:31;36.05;;;19.85;;
23080;SDS011;72373;50.562;8.498;2024-01-30T06:17:57;34.30;;;20.35;;
23080;SDS011;72373;50.562;8.498;2024-01-30T06:20:23;35.97;;;21.27;;
23080;SDS011;72373;50.562;8.498;2024-01-30T06:22:49;32.80;;;18.88;;
23080;SDS011;72373;50.562;8.498;2024-01-30T06:25:14;34.40;;;20.25;;
23080;SDS011;72373;50.562;8.498;2024-01-30T06:27:41;37.67;;;20.48;;
23080;SDS011;72373;50.562;8.498;2024-01-30T06:30:07;32.95;;;19.52;;
23080;SDS011;72373;50.562;8.498;2024-01-30T06:32:33;35.00;;;20.65;;
23080;SDS011;72373;50.562;8.498;2024-01-30T06:34:59;34.95;;;20.48;;
23080;SDS011;72373;50.562;8.498;2024-01-30T06:37:25;37.75;;;21.30;;
23080;SDS011;72373;50.562;8.498;2024-01-30T06:39:51;49.08;;;25.08;;
23080;SDS011;72373;50.562;8.498;2024-01-30T06:42:17;41.78;;;23.45;;
23080;SDS011;72373;50.562;8.498;2024-01-30T06:44:43;48.90;;;25.85;;
23080;SDS011;72373;50.562;8.498;2024-01-30T06:47:09;44.72;;;23.75;;
23080;SDS011;72373;50.562;8.498;2024-01-30T06:49:34;43.28;;;23.85;;
23080;SDS011;72373;50.562;8.498;2024-01-30T06:52:03;42.42;;;24.50;;
23080;SDS011;72373;50.562;8.498;2024-01-30T06:54:31;43.70;;;24.15;;
23080;SDS011;72373;50.562;8.498;2024-01-30T06:56:57;36.80;;;21.27;;
23080;SDS011;72373;50.562;8.498;2024-01-30T06:59:23;41.22;;;20.92;;
23080;SDS011;72373;50.562;8.498;2024-01-30T07:01:49;35.55;;;19.92;;
23080;SDS011;72373;50.562;8.498;2024-01-30T07:04:14;37.50;;;21.30;;
23080;SDS011;72373;50.562;8.498;2024-01-30T07:06:41;38.17;;;21.20;;
23080;SDS011;72373;50.562;8.498;2024-01-30T07:09:06;37.13;;;21.42;;
23080;SDS011;72373;50.562;8.498;2024-01-30T07:11:33;36.20;;;20.58;;
23080;SDS011;72373;50.562;8.498;2024-01-30T07:13:58;38.10;;;21.58;;
23080;SDS011;72373;50.562;8.498;2024-01-30T07:16:24;39.08;;;22.42;;
23080;SDS011;72373;50.562;8.498;2024-01-30T07:18:50;41.95;;;23.38;;
23080;SDS011;72373;50.562;8.498;2024-01-30T07:21:15;40.50;;;22.80;;
23080;SDS011;72373;50.562;8.498;2024-01-30T07:23:41;35.88;;;21.55;;
23080;SDS011;72373;50.562;8.498;2024-01-30T07:26:07;43.65;;;24.20;;
23080;SDS011;72373;50.562;8.498;2024-01-30T07:28:33;41.75;;;22.80;;
23080;SDS011;72373;50.562;8.498;2024-01-30T07:30:59;41.53;;;24.45;;
23080;SDS011;72373;50.562;8.498;2024-01-30T07:33:28;41.38;;;22.58;;
23080;SDS011;72373;50.562;8.498;2024-01-30T07:35:53;40.25;;;23.40;;
23080;SDS011;72373;50.562;8.498;2024-01-30T07:38:19;41.83;;;23.17;;
23080;SDS011;72373;50.562;8.498;2024-01-30T07:40:45;37.60;;;21.48;;
23080;SDS011;72373;50.562;8.498;2024-01-30T07:43:10;42.97;;;22.58;;
23080;SDS011;72373;50.562;8.498;2024-01-30T07:45:36;42.00;;;21.98;;
23080;SDS011;72373;50.562;8.498;2024-01-30T07:48:03;41.85;;;22.63;;
23080;SDS011;72373;50.562;8.498;2024-01-30T07:50:30;40.08;;;22.13;;
23080;SDS011;72373;50.562;8.498;2024-01-30T07:52:56;36.88;;;21.48;;
23080;SDS011;72373;50.562;8.498;2024-01-30T07:55:21;38.85;;;22.63;;
23080;SDS011;72373;50.562;8.498;2024-01-30T07:57:52;38.67;;;22.15;;
23080;SDS011;72373;50.562;8.498;2024-01-30T08:00:18;41.55;;;22.08;;
23080;SDS011;72373;50.562;8.498;2024-01-30T08:02:46;39.83;;;22.50;;
23080;SDS011;72373;50.562;8.498;2024-01-30T08:05:11;37.10;;;22.40;;
23080;SDS011;72373;50.562;8.498;2024-01-30T08:07:39;41.63;;;22.27;;
23080;SDS011;72373;50.562;8.498;2024-01-30T08:10:05;39.70;;;22.13;;
23080;SDS011;72373;50.562;8.498;2024-01-30T08:12:30;37.28;;;21.67;;
23080;SDS011;72373;50.562;8.498;2024-01-30T08:14:56;40.38;;;23.42;;
23080;SDS011;72373;50.562;8.498;2024-01-30T08:17:22;36.50;;;21.45;;
23080;SDS011;72373;50.562;8.498;2024-01-30T08:19:47;36.83;;;20.88;;
23080;SDS011;72373;50.562;8.498;2024-01-30T08:22:13;40.25;;;22.23;;
23080;SDS011;72373;50.562;8.498;2024-01-30T08:24:38;37.63;;;21.45;;
23080;SDS011;72373;50.562;8.498;2024-01-30T08:27:06;38.10;;;20.75;;
23080;SDS011;72373;50.562;8.498;2024-01-30T08:29:34;37.30;;;20.70;;
23080;SDS011;72373;50.562;8.498;2024-01-30T08:32:00;33.60;;;20.63;;
23080;SDS011;72373;50.562;8.498;2024-01-30T08:34:26;44.42;;;21.83;;
23080;SDS011;72373;50.562;8.498;2024-01-30T08:36:52;33.50;;;20.88;;
23080;SDS011;72373;50.562;8.498;2024-01-30T08:39:17;37.75;;;21.90;;
23080;SDS011;72373;50.562;8.498;2024-01-30T08:41:43;42.42;;;23.75;;
23080;SDS011;72373;50.562;8.498;2024-01-30T08:44:08;38.60;;;21.73;;
23080;SDS011;72373;50.562;8.498;2024-01-30T08:46:36;36.92;;;22.65;;
23080;SDS011;72373;50.562;8.498;2024-01-30T08:49:01;40.53;;;21.65;;
23080;SDS011;72373;50.562;8.498;2024-01-30T08:51:28;41.33;;;22.98;;
23080;SDS011;72373;50.562;8.498;2024-01-30T08:53:53;35.75;;;21.73;;
23080;SDS011;72373;50.562;8.498;2024-01-30T08:56:19;36.15;;;20.42;;
23080;SDS011;72373;50.562;8.498;2024-01-30T08:58:44;36.30;;;20.48;;
23080;SDS011;72373;50.562;8.498;2024-01-30T09:01:10;36.42;;;20.77;;
23080;SDS011;72373;50.562;8.498;2024-01-30T09:03:35;34.25;;;19.75;;
23080;SDS011;72373;50.562;8.498;2024-01-30T09:06:07;35.42;;;19.60;;
23080;SDS011;72373;50.562;8.498;2024-01-30T09:08:36;33.92;;;19.45;;
23080;SDS011;72373;50.562;8.498;2024-01-30T09:11:08;30.23;;;19.13;;
23080;SDS011;72373;50.562;8.498;2024-01-30T09:13:38;36.95;;;19.75;;
23080;SDS011;72373;50.562;8.498;2024-01-30T09:16:04;36.15;;;18.85;;
23080;SDS011;72373;50.562;8.498;2024-01-30T09:18:29;31.08;;;19.10;;
23080;SDS011;72373;50.562;8.498;2024-01-30T09:20:55;28.05;;;18.52;;
23080;SDS011;72373;50.562;8.498;2024-01-30T09:23:21;32.33;;;19.77;;
23080;SDS011;72373;50.562;8.498;2024-01-30T09:25:46;35.33;;;20.83;;
23080;SDS011;72373;50.562;8.498;2024-01-30T09:28:12;33.55;;;19.88;;
23080;SDS011;72373;50.562;8.498;2024-01-30T09:30:37;33.50;;;19.10;;
23080;SDS011;72373;50.562;8.498;2024-01-30T09:33:03;35.53;;;20.48;;
23080;SDS011;72373;50.562;8.498;2024-01-30T09:35:29;36.20;;;21.02;;
23080;SDS011;72373;50.562;8.498;2024-01-30T09:37:55;45.22;;;22.30;;
23080;SDS011;72373;50.562;8.498;2024-01-30T09:40:21;38.75;;;21.05;;
23080;SDS011;72373;50.562;8.498;2024-01-30T09:42:47;36.15;;;20.95;;
23080;SDS011;72373;50.562;8.498;2024-01-30T09:45:15;41.92;;;20.42;;
23080;SDS011;72373;50.562;8.498;2024-01-30T09:47:48;32.65;;;20.45;;
23080;SDS011;72373;50.562;8.498;2024-01-30T09:50:14;36.25;;;20.40;;
23080;SDS011;72373;50.562;8.498;2024-01-30T09:52:40;35.95;;;21.73;;
23080;SDS011;72373;50.562;8.498;2024-01-30T09:55:06;37.25;;;20.90;;
23080;SDS011;72373;50.562;8.498;2024-01-30T09:57:32;32.55;;;20.67;;
23080;SDS011;72373;50.562;8.498;2024-01-30T09:59:59;35.45;;;20.52;;
23080;SDS011;72373;50.562;8.498;2024-01-30T10:02:24;33.78;;;19.98;;
23080;SDS011;72373;50.562;8.498;2024-01-30T10:04:51;34.63;;;19.77;;
23080;SDS011;72373;50.562;8.498;2024-01-30T10:07:20;33.15;;;20.85;;
23080;SDS011;72373;50.562;8.498;2024-01-30T10:09:46;33.33;;;19.15;;
23080;SDS011;72373;50.562;8.498;2024-01-30T10:12:11;32.40;;;18.80;;
23080;SDS011;72373;50.562;8.498;2024-01-30T10:14:41;29.52;;;18.98;;
23080;SDS011;72373;50.562;8.498;2024-01-30T10:17:08;32.70;;;19.20;;
23080;SDS011;72373;50.562;8.498;2024-01-30T10:19:35;29.50;;;18.60;;
23080;SDS011;72373;50.562;8.498;2024-01-30T10:22:01;29.67;;;18.58;;
23080;SDS011;72373;50.562;8.498;2024-01-30T10:24:26;38.25;;;21.00;;
23080;SDS011;72373;50.562;8.498;2024-01-30T10:26:54;31.77;;;21.02;;
23080;SDS011;72373;50.562;8.498;2024-01-30T10:29:19;36.83;;;21.25;;
23080;SDS011;72373;50.562;8.498;2024-01-30T10:31:45;30.38;;;19.30;;
23080;SDS011;72373;50.562;8.498;2024-01-30T10:34:12;38.97;;;20.13;;
23080;SDS011;72373;50.562;8.498;2024-01-30T10:36:40;30.10;;;19.55;;
23080;SDS011;72373;50.562;8.498;2024-01-30T10:39:08;31.58;;;20.00;;
23080;SDS011;72373;50.562;8.498;2024-01-30T10:41:37;33.25;;;19.63;;
23080;SDS011;72373;50.562;8.498;2024-01-30T10:44:09;31.23;;;19.85;;
23080;SDS011;72373;50.562;8.498;2024-01-30T10:46:37;31.67;;;19.35;;
23080;SDS011;72373;50.562;8.498;2024-01-30T10:49:03;38.88;;;21.23;;
23080;SDS011;72373;50.562;8.498;2024-01-30T10:51:30;31.75;;;20.35;;
23080;SDS011;72373;50.562;8.498;2024-01-30T10:53:56;36.08;;;20.10;;
23080;SDS011;72373;50.562;8.498;2024-01-30T10:56:23;32.42;;;19.65;;
23080;SDS011;72373;50.562;8.498;2024-01-30T10:58:49;32.63;;;20.05;;
23080;SDS011;72373;50.562;8.498;2024-01-30T11:01:17;27.25;;;18.50;;
23080;SDS011;72373;50.562;8.498;2024-01-30T11:03:44;27.98;;;17.42;;
23080;SDS011;72373;50.562;8.498;2024-01-30T11:06:11;41.75;;;21.40;;
23080;SDS011;72373;50.562;8.498;2024-01-30T11:08:43;29.20;;;20.65;;
23080;SDS011;72373;50.562;8.498;2024-01-30T11:11:09;33.80;;;21.20;;
23080;SDS011;72373;50.562;8.498;2024-01-30T11:13:35;33.10;;;20.45;;
23080;SDS011;72373;50.562;8.498;2024-01-30T11:16:01;35.92;;;20.63;;
23080;SDS011;72373;50.562;8.498;2024-01-30T11:18:31;33.40;;;20.08;;
23080;SDS011;72373;50.562;8.498;2024-01-30T11:20:58;34.63;;;21.20;;
23080;SDS011;72373;50.562;8.498;2024-01-30T11:23:27;28.95;;;19.48;;
23080;SDS011;72373;50.562;8.498;2024-01-30T11:25:56;35.42;;;20.75;;
23080;SDS011;72373;50.562;8.498;2024-01-30T11:28:22;33.47;;;20.63;;
23080;SDS011;72373;50.562;8.498;2024-01-30T11:30:48;31.95;;;21.17;;
23080;SDS011;72373;50.562;8.498;2024-01-30T11:33:15;28.85;;;19.33;;
23080;SDS011;72373;50.562;8.498;2024-01-30T11:35:56;31.40;;;19.63;;
23080;SDS011;72373;50.562;8.498;2024-01-30T11:38:22;32.60;;;20.88;;
23080;SDS011;72373;50.562;8.498;2024-01-30T11:40:50;33.28;;;20.98;;
23080;SDS011;72373;50.562;8.498;2024-01-30T11:43:17;28.02;;;19.55;;
23080;SDS011;72373;50.562;8.498;2024-01-30T11:45:43;28.30;;;18.17;;
23080;SDS011;72373;50.562;8.498;2024-01-30T11:48:11;29.50;;;19.00;;
23080;SDS011;72373;50.562;8.498;2024-01-30T11:50:37;27.67;;;17.92;;
23080;SDS011;72373;50.562;8.498;2024-01-30T11:53:06;37.15;;;19.48;;
23080;SDS011;72373;50.562;8.498;2024-01-30T11:55:33;27.42;;;19.27;;
23080;SDS011;72373;50.562;8.498;2024-01-30T11:58:00;29.10;;;18.90;;
23080;SDS011;72373;50.562;8.498;2024-01-30T12:00:26;26.33;;;18.23;;
23080;SDS011;72373;50.562;8.498;2024-01-30T12:02:52;28.75;;;18.42;;
23080;SDS011;72373;50.562;8.498;2024-01-30T12:05:22;27.50;;;18.08;;
23080;SDS011;72373;50.562;8.498;2024-01-30T12:07:48;30.55;;;20.45;;
23080;SDS011;72373;50.562;8.498;2024-01-30T12:10:14;32.63;;;21.90;;
23080;SDS011;72373;50.562;8.498;2024-01-30T12:12:40;29.25;;;19.55;;
23080;SDS011;72373;50.562;8.498;2024-01-30T12:15:08;29.67;;;19.90;;
23080;SDS011;72373;50.562;8.498;2024-01-30T12:17:34;30.90;;;19.50;;
23080;SDS011;72373;50.562;8.498;2024-01-30T12:20:03;32.17;;;20.27;;
23080;SDS011;72373;50.562;8.498;2024-01-30T12:22:31;31.13;;;19.10;;
23080;SDS011;72373;50.562;8.498;2024-01-30T12:25:10;30.25;;;19.55;;
23080;SDS011;72373;50.562;8.498;2024-01-30T12:27:37;26.73;;;18.15;;
23080;SDS011;72373;50.562;8.498;2024-01-30T12:30:07;28.58;;;19.13;;
23080;SDS011;72373;50.562;8.498;2024-01-30T12:32:37;29.45;;;18.88;;
23080;SDS011;72373;50.562;8.498;2024-01-30T12:35:09;33.08;;;21.20;;
23080;SDS011;72373;50.562;8.498;2024-01-30T12:37:38;28.20;;;19.33;;
23080;SDS011;72373;50.562;8.498;2024-01-30T12:40:04;35.08;;;20.35;;
23080;SDS011;72373;50.562;8.498;2024-01-30T12:42:33;28.98;;;19.45;;
23080;SDS011;72373;50.562;8.498;2024-01-30T12:44:59;27.38;;;19.73;;
23080;SDS011;72373;50.562;8.498;2024-01-30T12:47:25;25.80;;;17.67;;
23080;SDS011;72373;50.562;8.498;2024-01-30T12:49:50;26.75;;;18.50;;
23080;SDS011;72373;50.562;8.498;2024-01-30T12:52:20;26.67;;;18.55;;
23080;SDS011;72373;50.562;8.498;2024-01-30T12:54:46;31.40;;;20.90;;
23080;SDS011;72373;50.562;8.498;2024-01-30T12:57:12;28.27;;;19.83;;
23080;SDS011;72373;50.562;8.498;2024-01-30T12:59:38;31.25;;;21.27;;
23080;SDS011;72373;50.562;8.498;2024-01-30T13:02:04;31.52;;;20.92;;
23080;SDS011;72373;50.562;8.498;2024-01-30T13:04:30;30.00;;;20.60;;
23080;SDS011;72373;50.562;8.498;2024-01-30T13:06:55;31.13;;;19.75;;
23080;SDS011;72373;50.562;8.498;2024-01-30T13:09:22;32.72;;;21.80;;
23080;SDS011;72373;50.562;8.498;2024-01-30T13:11:47;33.15;;;22.17;;
23080;SDS011;72373;50.562;8.498;2024-01-30T13:14:14;30.58;;;22.35;;
23080;SDS011;72373;50.562;8.498;2024-01-30T13:16:39;27.58;;;19.90;;
23080;SDS011;72373;50.562;8.498;2024-01-30T13:19:05;31.35;;;19.38;;
23080;SDS011;72373;50.562;8.498;2024-01-30T13:21:31;32.85;;;20.58;;
23080;SDS011;72373;50.562;8.498;2024-01-30T13:23:56;29.55;;;20.42;;
23080;SDS011;72373;50.562;8.498;2024-01-30T13:26:21;32.60;;;21.45;;
23080;SDS011;72373;50.562;8.498;2024-01-30T13:28:47;34.15;;;21.88;;
23080;SDS011;72373;50.562;8.498;2024-01-30T13:31:13;32.88;;;21.88;;
23080;SDS011;72373;50.562;8.498;2024-01-30T13:33:40;29.35;;;20.58;;
23080;SDS011;72373;50.562;8.498;2024-01-30T13:36:06;30.95;;;20.08;;
23080;SDS011;72373;50.562;8.498;2024-01-30T13:38:35;33.03;;;21.60;;
23080;SDS011;72373;50.562;8.498;2024-01-30T13:41:00;38.53;;;24.73;;
23080;SDS011;72373;50.562;8.498;2024-01-30T13:43:26;44.55;;;27.70;;
23080;SDS011;72373;50.562;8.498;2024-01-30T13:45:52;35.42;;;23.00;;
23080;SDS011;72373;50.562;8.498;2024-01-30T13:48:17;31.90;;;22.20;;
23080;SDS011;72373;50.562;8.498;2024-01-30T13:50:43;35.72;;;22.45;;
23080;SDS011;72373;50.562;8.498;2024-01-30T13:53:09;34.95;;;22.27;;
23080;SDS011;72373;50.562;8.498;2024-01-30T13:55:35;30.92;;;21.25;;
23080;SDS011;72373;50.562;8.498;2024-01-30T13:58:00;30.60;;;21.48;;
23080;SDS011;72373;50.562;8.498;2024-01-30T14:00:29;38.63;;;22.52;;
23080;SDS011;72373;50.562;8.498;2024-01-30T14:02:54;36.03;;;21.63;;
23080;SDS011;72373;50.562;8.498;2024-01-30T14:05:20;31.80;;;22.77;;
23080;SDS011;72373;50.562;8.498;2024-01-30T14:07:49;35.78;;;21.85;;
23080;SDS011;72373;50.562;8.498;2024-01-30T14:10:15;27.65;;;20.75;;
23080;SDS011;72373;50.562;8.498;2024-01-30T14:12:44;38.13;;;22.70;;
23080;SDS011;72373;50.562;8.498;2024-01-30T14:15:09;37.08;;;23.83;;